sensor_id;sensor_type;location;lat;lon;timestamp;pressure;altitude;pressure_sealevel;temperature;humidity
14885;BME280;7534;50.762;7.000;2023-04-04T00:01:58;88940.31;;;-143.16;55.43
14885;BME280;7534;50.762;7.000;2023-04-04T00:04:26;88960.50;;;-143.16;55.60
14885;BME280;7534;50.762;7.000;2023-04-04T00:06:53;88936.28;;;-143.16;55.92
14885;BME280;7534;50.762;7.000;2023-04-04T00:09:19;88970.59;;;-143.16;56.05
14885;BME280;7534;50.762;7.000;2023-04-04T00:11:46;89057.41;;;-143.16;56.51
14885;BME280;7534;50.762;7.000;2023-04-04T00:14:12;88948.38;;;-143.16;56.95
14885;BME280;7534;50.762;7.000;2023-04-04T00:16:37;88928.19;;;-143.16;57.19
14885;BME280;7534;50.762;7.000;2023-04-04T00:19:03;88982.72;;;-143.16;57.70
14885;BME280;7534;50.762;7.000;2023-04-04T00:21:29;88980.69;;;-143.16;57.70
14885;BME280;7534;50.762;7.000;2023-04-04T00:23:56;88976.66;;;-143.16;57.93
14885;BME280;7534;50.762;7.000;2023-04-04T00:26:23;88994.81;;;-143.16;57.90
14885;BME280;7534;50.762;7.000;2023-04-04T00:28:48;88897.91;;;-143.16;58.11
14885;BME280;7534;50.762;7.000;2023-04-04T00:31:14;88980.69;;;-143.16;58.17
14885;BME280;7534;50.762;7.000;2023-04-04T00:33:40;88988.75;;;-143.16;58.07
14885;BME280;7534;50.762;7.000;2023-04-04T00:36:06;88990.78;;;-143.16;58.24
14885;BME280;7534;50.762;7.000;2023-04-04T00:38:32;89004.91;;;-143.16;58.26
14885;BME280;7534;50.762;7.000;2023-04-04T00:40:57;89004.91;;;-143.16;58.54
14885;BME280;7534;50.762;7.000;2023-04-04T00:43:24;89000.88;;;-143.16;58.40
14885;BME280;7534;50.762;7.000;2023-04-04T00:45:51;88956.47;;;-143.16;58.41
14885;BME280;7534;50.762;7.000;2023-04-04T00:48:17;88964.53;;;-143.16;58.47
14885;BME280;7534;50.762;7.000;2023-04-04T00:50:43;88984.72;;;-143.16;58.53
14885;BME280;7534;50.762;7.000;2023-04-04T00:53:09;89075.59;;;-143.16;58.83
14885;BME280;7534;50.762;7.000;2023-04-04T00:55:38;88980.69;;;-143.16;58.99
14885;BME280;7534;50.762;7.000;2023-04-04T00:58:04;88968.56;;;-143.16;59.24
14885;BME280;7534;50.762;7.000;2023-04-04T01:00:34;88970.59;;;-143.16;59.15
14885;BME280;7534;50.762;7.000;2023-04-04T01:03:01;88958.47;;;-143.16;59.18
14885;BME280;7534;50.762;7.000;2023-04-04T01:05:27;89013.00;;;-143.16;59.55
14885;BME280;7534;50.762;7.000;2023-04-04T01:07:53;88982.72;;;-143.16;59.64
14885;BME280;7534;50.762;7.000;2023-04-04T01:10:19;88960.50;;;-143.16;60.00
14885;BME280;7534;50.762;7.000;2023-04-04T01:12:45;88968.56;;;-143.16;59.97
14885;BME280;7534;50.762;7.000;2023-04-04T01:15:11;88978.66;;;-143.16;60.23
14885;BME280;7534;50.762;7.000;2023-04-04T01:17:37;88996.84;;;-143.16;59.94
14885;BME280;7534;50.762;7.000;2023-04-04T01:20:06;89031.16;;;-143.16;59.58
14885;BME280;7534;50.762;7.000;2023-04-04T01:22:37;88998.88;;;-143.16;59.63
14885;BME280;7534;50.762;7.000;2023-04-04T01:25:06;89033.19;;;-143.16;59.57
14885;BME280;7534;50.762;7.000;2023-04-04T01:27:33;89063.47;;;-143.16;59.44
14885;BME280;7534;50.762;7.000;2023-04-04T01:29:59;88994.81;;;-143.16;59.70
14885;BME280;7534;50.762;7.000;2023-04-04T01:32:58;89013.00;;;-143.16;60.39
14885;BME280;7534;50.762;7.000;2023-04-04T01:35:42;88996.84;;;-143.16;60.35
14885;BME280;7534;50.762;7.000;2023-04-04T01:38:52;89006.94;;;-143.16;60.10
14885;BME280;7534;50.762;7.000;2023-04-04T01:41:19;88972.63;;;-143.16;60.47
14885;BME280;7534;50.762;7.000;2023-04-04T01:43:46;89049.34;;;-143.16;60.25
14885;BME280;7534;50.762;7.000;2023-04-04T01:46:12;89057.41;;;-143.16;60.78
14885;BME280;7534;50.762;7.000;2023-04-04T01:48:37;89087.72;;;-143.16;60.97
14885;BME280;7534;50.762;7.000;2023-04-04T01:51:03;89101.84;;;-143.16;61.34
14885;BME280;7534;50.762;7.000;2023-04-04T01:53:29;89051.38;;;-143.16;61.46
14885;BME280;7534;50.762;7.000;2023-04-04T01:55:56;89039.25;;;-143.16;62.02
14885;BME280;7534;50.762;7.000;2023-04-04T01:58:22;89095.78;;;-143.16;61.85
14885;BME280;7534;50.762;7.000;2023-04-04T02:00:47;88903.97;;;-143.16;61.85
14885;BME280;7534;50.762;7.000;2023-04-04T02:03:13;89027.13;;;-143.16;62.08
14885;BME280;7534;50.762;7.000;2023-04-04T02:05:38;89017.03;;;-143.16;61.96
14885;BME280;7534;50.762;7.000;2023-04-04T02:08:05;89126.06;;;-143.16;62.31
14885;BME280;7534;50.762;7.000;2023-04-04T02:10:31;89006.94;;;-143.16;62.42
14885;BME280;7534;50.762;7.000;2023-04-04T02:12:56;88992.81;;;-143.16;62.53
14885;BME280;7534;50.762;7.000;2023-04-04T02:15:22;89103.84;;;-143.16;62.58
14885;BME280;7534;50.762;7.000;2023-04-04T02:17:48;89061.47;;;-143.16;62.63
14885;BME280;7534;50.762;7.000;2023-04-04T02:20:14;89043.28;;;-143.16;62.61
14885;BME280;7534;50.762;7.000;2023-04-04T02:22:50;89037.22;;;-143.16;62.96
14885;BME280;7534;50.762;7.000;2023-04-04T02:25:17;89041.25;;;-143.16;63.22
14885;BME280;7534;50.762;7.000;2023-04-04T02:27:42;89045.31;;;-143.16;63.55
14885;BME280;7534;50.762;7.000;2023-04-04T02:30:09;89063.47;;;-143.16;63.54
14885;BME280;7534;50.762;7.000;2023-04-04T02:32:35;89049.34;;;-143.16;63.50
14885;BME280;7534;50.762;7.000;2023-04-04T02:35:02;89083.66;;;-143.16;63.86
14885;BME280;7534;50.762;7.000;2023-04-04T02:37:29;89047.31;;;-143.16;63.90
14885;BME280;7534;50.762;7.000;2023-04-04T02:39:54;89061.47;;;-143.16;63.77
14885;BME280;7534;50.762;7.000;2023-04-04T02:42:20;89053.38;;;-143.16;64.13
14885;BME280;7534;50.762;7.000;2023-04-04T02:44:46;89033.19;;;-143.16;64.28
14885;BME280;7534;50.762;7.000;2023-04-04T02:47:11;89063.47;;;-143.16;64.30
14885;BME280;7534;50.762;7.000;2023-04-04T02:49:37;89010.97;;;-143.16;64.36
14885;BME280;7534;50.762;7.000;2023-04-04T02:52:03;89039.25;;;-143.16;64.24
14885;BME280;7534;50.762;7.000;2023-04-04T02:54:29;89037.22;;;-143.16;64.64
14885;BME280;7534;50.762;7.000;2023-04-04T02:56:55;89156.34;;;-143.16;64.64
14885;BME280;7534;50.762;7.000;2023-04-04T02:59:20;89021.06;;;-143.16;64.88
14885;BME280;7534;50.762;7.000;2023-04-04T03:01:46;89063.47;;;-143.16;65.21
14885;BME280;7534;50.762;7.000;2023-04-04T03:04:12;89067.50;;;-143.16;65.42
14885;BME280;7534;50.762;7.000;2023-04-04T03:06:38;89063.47;;;-143.16;65.33
14885;BME280;7534;50.762;7.000;2023-04-04T03:09:06;89047.31;;;-143.16;65.61
14885;BME280;7534;50.762;7.000;2023-04-04T03:11:31;89023.09;;;-143.16;65.23
14885;BME280;7534;50.762;7.000;2023-04-04T03:13:57;89013.00;;;-143.16;65.15
14885;BME280;7534;50.762;7.000;2023-04-04T03:16:23;89073.56;;;-143.16;65.49
14885;BME280;7534;50.762;7.000;2023-04-04T03:18:48;89037.22;;;-143.16;65.01
14885;BME280;7534;50.762;7.000;2023-04-04T03:21:14;89073.56;;;-143.16;65.23
14885;BME280;7534;50.762;7.000;2023-04-04T03:23:41;89079.63;;;-143.16;65.26
14885;BME280;7534;50.762;7.000;2023-04-04T03:26:07;89047.31;;;-143.16;65.63
14885;BME280;7534;50.762;7.000;2023-04-04T03:28:33;89071.56;;;-143.16;65.82
14885;BME280;7534;50.762;7.000;2023-04-04T03:31:04;89041.25;;;-143.16;66.22
14885;BME280;7534;50.762;7.000;2023-04-04T03:33:31;89095.78;;;-143.16;66.17
14885;BME280;7534;50.762;7.000;2023-04-04T03:35:58;89045.31;;;-143.16;65.97
14885;BME280;7534;50.762;7.000;2023-04-04T03:38:24;89059.44;;;-143.16;66.20
14885;BME280;7534;50.762;7.000;2023-04-04T03:41:00;89057.41;;;-143.16;65.96
14885;BME280;7534;50.762;7.000;2023-04-04T03:43:25;89049.34;;;-143.16;65.89
14885;BME280;7534;50.762;7.000;2023-04-04T03:45:53;89061.47;;;-143.16;65.95
14885;BME280;7534;50.762;7.000;2023-04-04T03:48:19;89073.56;;;-143.16;66.24
14885;BME280;7534;50.762;7.000;2023-04-04T03:50:45;89085.69;;;-143.16;66.22
14885;BME280;7534;50.762;7.000;2023-04-04T03:53:14;89025.13;;;-143.16;65.86
14885;BME280;7534;50.762;7.000;2023-04-04T03:55:40;89049.34;;;-143.16;66.09
14885;BME280;7534;50.762;7.000;2023-04-04T03:58:06;89071.56;;;-143.16;66.31
14885;BME280;7534;50.762;7.000;2023-04-04T04:00:32;89077.59;;;-143.16;66.24
14885;BME280;7534;50.762;7.000;2023-04-04T04:02:58;89073.56;;;-143.16;66.26
14885;BME280;7534;50.762;7.000;2023-04-04T04:05:23;89077.59;;;-143.16;66.36
14885;BME280;7534;50.762;7.000;2023-04-04T04:07:49;89079.63;;;-143.16;66.54
14885;BME280;7534;50.762;7.000;2023-04-04T04:10:15;89075.59;;;-143.16;66.52
14885;BME280;7534;50.762;7.000;2023-04-04T04:12:41;89097.81;;;-143.16;66.57
14885;BME280;7534;50.762;7.000;2023-04-04T04:15:07;89071.56;;;-143.16;66.40
14885;BME280;7534;50.762;7.000;2023-04-04T04:17:33;89077.59;;;-143.16;65.98
14885;BME280;7534;50.762;7.000;2023-04-04T04:19:58;89073.56;;;-143.16;65.96
14885;BME280;7534;50.762;7.000;2023-04-04T04:22:24;89140.22;;;-143.16;65.94
14885;BME280;7534;50.762;7.000;2023-04-04T04:24:50;89091.75;;;-143.16;66.15
14885;BME280;7534;50.762;7.000;2023-04-04T04:27:16;89180.59;;;-143.16;66.50
14885;BME280;7534;50.762;7.000;2023-04-04T04:29:41;89045.31;;;-143.16;66.29
14885;BME280;7534;50.762;7.000;2023-04-04T04:32:07;89093.75;;;-143.16;66.71
14885;BME280;7534;50.762;7.000;2023-04-04T04:34:33;89071.56;;;-143.16;66.82
14885;BME280;7534;50.762;7.000;2023-04-04T04:36:58;89122.03;;;-143.16;66.94
14885;BME280;7534;50.762;7.000;2023-04-04T04:39:24;89093.75;;;-143.16;66.97
14885;BME280;7534;50.762;7.000;2023-04-04T04:41:49;89053.38;;;-143.16;66.82
14885;BME280;7534;50.762;7.000;2023-04-04T04:44:15;89049.34;;;-143.16;67.18
14885;BME280;7534;50.762;7.000;2023-04-04T04:46:41;89059.44;;;-143.16;67.18
14885;BME280;7534;50.762;7.000;2023-04-04T04:49:06;89077.59;;;-143.16;67.28
14885;BME280;7534;50.762;7.000;2023-04-04T04:51:32;89069.53;;;-143.16;67.25
14885;BME280;7534;50.762;7.000;2023-04-04T04:53:58;89156.34;;;-143.16;67.37
14885;BME280;7534;50.762;7.000;2023-04-04T04:56:23;89097.81;;;-143.16;67.15
14885;BME280;7534;50.762;7.000;2023-04-04T04:58:49;89097.81;;;-143.16;66.79
14885;BME280;7534;50.762;7.000;2023-04-04T05:01:15;89065.50;;;-143.16;66.80
14885;BME280;7534;50.762;7.000;2023-04-04T05:03:41;89077.59;;;-143.16;67.22
14885;BME280;7534;50.762;7.000;2023-04-04T05:06:06;89000.88;;;-143.16;67.30
14885;BME280;7534;50.762;7.000;2023-04-04T05:08:32;89148.28;;;-143.16;66.91
14885;BME280;7534;50.762;7.000;2023-04-04T05:10:58;89049.34;;;-143.16;67.09
14885;BME280;7534;50.762;7.000;2023-04-04T05:13:23;89174.53;;;-143.16;67.25
14885;BME280;7534;50.762;7.000;2023-04-04T05:15:49;89023.09;;;-143.16;67.14
14885;BME280;7534;50.762;7.000;2023-04-04T05:18:15;89093.75;;;-143.16;66.92
14885;BME280;7534;50.762;7.000;2023-04-04T05:20:41;89093.75;;;-143.16;66.93
14885;BME280;7534;50.762;7.000;2023-04-04T05:23:07;89051.38;;;-143.16;66.67
14885;BME280;7534;50.762;7.000;2023-04-04T05:25:33;89057.41;;;-143.16;66.96
14885;BME280;7534;50.762;7.000;2023-04-04T05:27:58;89095.78;;;-143.16;66.50
14885;BME280;7534;50.762;7.000;2023-04-04T05:30:24;89035.22;;;-143.16;66.52
14885;BME280;7534;50.762;7.000;2023-04-04T05:32:50;89089.72;;;-143.16;66.36
14885;BME280;7534;50.762;7.000;2023-04-04T05:35:17;89067.50;;;-143.16;66.71
14885;BME280;7534;50.762;7.000;2023-04-04T05:37:42;89041.25;;;-143.16;66.31
14885;BME280;7534;50.762;7.000;2023-04-04T05:40:09;89035.22;;;-143.16;66.49
14885;BME280;7534;50.762;7.000;2023-04-04T05:42:35;89047.31;;;-143.16;66.45
14885;BME280;7534;50.762;7.000;2023-04-04T05:45:01;89047.31;;;-143.16;66.50
14885;BME280;7534;50.762;7.000;2023-04-04T05:47:26;89168.47;;;-143.16;66.43
14885;BME280;7534;50.762;7.000;2023-04-04T05:49:52;89055.41;;;-143.16;66.56
14885;BME280;7534;50.762;7.000;2023-04-04T05:52:18;88984.72;;;-143.16;66.50
14885;BME280;7534;50.762;7.000;2023-04-04T05:54:43;89019.06;;;-143.16;68.18
14885;BME280;7534;50.762;7.000;2023-04-04T05:57:09;89000.88;;;-143.16;70.14
14885;BME280;7534;50.762;7.000;2023-04-04T05:59:35;88974.63;;;-143.16;70.51
14885;BME280;7534;50.762;7.000;2023-04-04T06:02:01;88924.16;;;-143.16;70.68
14885;BME280;7534;50.762;7.000;2023-04-04T06:04:27;88903.97;;;-143.16;69.77
14885;BME280;7534;50.762;7.000;2023-04-04T06:06:52;88798.97;;;-143.16;65.92
14885;BME280;7534;50.762;7.000;2023-04-04T06:09:18;88803.00;;;-143.16;60.64
14885;BME280;7534;50.762;7.000;2023-04-04T06:11:44;88772.72;;;-143.16;58.73
14885;BME280;7534;50.762;7.000;2023-04-04T06:14:10;88748.50;;;-143.16;55.71
14885;BME280;7534;50.762;7.000;2023-04-04T06:16:35;88714.19;;;-143.16;53.48
14885;BME280;7534;50.762;7.000;2023-04-04T06:19:02;88710.13;;;-143.16;51.90
14885;BME280;7534;50.762;7.000;2023-04-04T06:21:27;88685.91;;;-143.16;49.59
14885;BME280;7534;50.762;7.000;2023-04-04T06:23:54;88625.34;;;-143.16;46.43
14885;BME280;7534;50.762;7.000;2023-04-04T06:26:19;88617.25;;;-143.16;45.03
14885;BME280;7534;50.762;7.000;2023-04-04T06:28:50;88560.75;;;-143.16;42.86
14885;BME280;7534;50.762;7.000;2023-04-04T06:31:16;88455.75;;;-143.16;41.43
14885;BME280;7534;50.762;7.000;2023-04-04T06:33:42;88241.78;;;-143.16;37.71
14885;BME280;7534;50.762;7.000;2023-04-04T06:36:07;87993.47;;;-143.16;34.42
14885;BME280;7534;50.762;7.000;2023-04-04T06:38:33;87793.66;;;-143.16;31.91
14885;BME280;7534;50.762;7.000;2023-04-04T06:40:59;87466.69;;;-143.16;30.39
14885;BME280;7534;50.762;7.000;2023-04-04T06:43:24;87172.03;;;-143.16;27.36
14885;BME280;7534;50.762;7.000;2023-04-04T06:45:50;86970.22;;;-143.16;25.66
14885;BME280;7534;50.762;7.000;2023-04-04T06:48:16;86861.25;;;-143.16;24.53
14885;BME280;7534;50.762;7.000;2023-04-04T06:50:42;86816.88;;;-143.16;23.23
14885;BME280;7534;50.762;7.000;2023-04-04T06:53:09;86824.94;;;-143.16;23.19
14885;BME280;7534;50.762;7.000;2023-04-04T06:55:34;86651.41;;;-143.16;23.04
14885;BME280;7534;50.762;7.000;2023-04-04T06:58:01;86477.88;;;-143.16;22.50
14885;BME280;7534;50.762;7.000;2023-04-04T07:00:27;86354.81;;;-143.16;21.49
14885;BME280;7534;50.762;7.000;2023-04-04T07:03:00;86352.78;;;-143.16;21.25
14885;BME280;7534;50.762;7.000;2023-04-04T07:05:26;86352.78;;;-143.16;21.37
14885;BME280;7534;50.762;7.000;2023-04-04T07:07:55;86352.78;;;-143.16;20.86
14885;BME280;7534;50.762;7.000;2023-04-04T07:10:23;86532.34;;;-143.16;21.15
14885;BME280;7534;50.762;7.000;2023-04-04T07:12:49;86812.81;;;-143.16;22.26
14885;BME280;7534;50.762;7.000;2023-04-04T07:15:16;87285.03;;;-143.16;23.71
14885;BME280;7534;50.762;7.000;2023-04-04T07:17:42;87416.22;;;-143.16;24.30
14885;BME280;7534;50.762;7.000;2023-04-04T07:20:09;87591.81;;;-143.16;25.81
14885;BME280;7534;50.762;7.000;2023-04-04T07:22:39;87480.81;;;-143.16;25.33
14885;BME280;7534;50.762;7.000;2023-04-04T07:25:06;87620.06;;;-143.16;25.78
14885;BME280;7534;50.762;7.000;2023-04-04T07:27:32;87656.41;;;-143.16;26.31
14885;BME280;7534;50.762;7.000;2023-04-04T07:29:58;87854.19;;;-143.16;27.54
14885;BME280;7534;50.762;7.000;2023-04-04T07:32:23;87991.47;;;-143.16;29.21
14885;BME280;7534;50.762;7.000;2023-04-04T07:34:49;87888.50;;;-143.16;28.35
14885;BME280;7534;50.762;7.000;2023-04-04T07:37:15;87967.25;;;-143.16;28.73
14885;BME280;7534;50.762;7.000;2023-04-04T07:39:41;87934.94;;;-143.16;29.54
14885;BME280;7534;50.762;7.000;2023-04-04T07:42:07;87906.69;;;-143.16;29.07
14885;BME280;7534;50.762;7.000;2023-04-04T07:44:33;87612.00;;;-143.16;27.33
14885;BME280;7534;50.762;7.000;2023-04-04T07:46:59;87232.56;;;-143.16;25.02
14885;BME280;7534;50.762;7.000;2023-04-04T07:49:25;87155.88;;;-143.16;23.64
14885;BME280;7534;50.762;7.000;2023-04-04T07:51:51;87071.13;;;-143.16;22.73
14885;BME280;7534;50.762;7.000;2023-04-04T07:54:17;87341.53;;;-143.16;23.87
14885;BME280;7534;50.762;7.000;2023-04-04T07:56:42;87414.19;;;-143.16;24.74
14885;BME280;7534;50.762;7.000;2023-04-04T07:59:08;87686.66;;;-143.16;25.70
14885;BME280;7534;50.762;7.000;2023-04-04T08:01:34;87503.00;;;-143.16;25.40
14885;BME280;7534;50.762;7.000;2023-04-04T08:03:59;87468.69;;;-143.16;24.32
14885;BME280;7534;50.762;7.000;2023-04-04T08:06:25;87335.50;;;-143.16;23.91
14885;BME280;7534;50.762;7.000;2023-04-04T08:08:51;87222.47;;;-143.16;23.70
14885;BME280;7534;50.762;7.000;2023-04-04T08:11:17;87200.28;;;-143.16;23.31
14885;BME280;7534;50.762;7.000;2023-04-04T08:13:43;87103.41;;;-143.16;22.91
14885;BME280;7534;50.762;7.000;2023-04-04T08:16:09;87057.00;;;-143.16;22.60
14885;BME280;7534;50.762;7.000;2023-04-04T08:18:34;87024.72;;;-143.16;22.51
14885;BME280;7534;50.762;7.000;2023-04-04T08:21:00;87159.91;;;-143.16;22.46
14885;BME280;7534;50.762;7.000;2023-04-04T08:23:26;87238.63;;;-143.16;22.93
14885;BME280;7534;50.762;7.000;2023-04-04T08:25:54;87319.34;;;-143.16;22.57
14885;BME280;7534;50.762;7.000;2023-04-04T08:28:19;87531.25;;;-143.16;24.39
14885;BME280;7534;50.762;7.000;2023-04-04T08:30:46;87575.66;;;-143.16;24.42
14885;BME280;7534;50.762;7.000;2023-04-04T08:33:12;87515.13;;;-143.16;24.23
14885;BME280;7534;50.762;7.000;2023-04-04T08:35:37;87563.56;;;-143.16;24.52
14885;BME280;7534;50.762;7.000;2023-04-04T08:38:03;87591.81;;;-143.16;24.30
14885;BME280;7534;50.762;7.000;2023-04-04T08:40:32;87684.66;;;-143.16;25.05
14885;BME280;7534;50.762;7.000;2023-04-04T08:42:59;87553.47;;;-143.16;24.49
14885;BME280;7534;50.762;7.000;2023-04-04T08:45:28;87446.50;;;-143.16;23.83
14885;BME280;7534;50.762;7.000;2023-04-04T08:47:57;87529.25;;;-143.16;23.60
14885;BME280;7534;50.762;7.000;2023-04-04T08:50:24;87640.25;;;-143.16;24.51
14885;BME280;7534;50.762;7.000;2023-04-04T08:52:51;87446.50;;;-143.16;23.55
14885;BME280;7534;50.762;7.000;2023-04-04T08:55:18;87632.19;;;-143.16;23.96
14885;BME280;7534;50.762;7.000;2023-04-04T08:57:44;87725.03;;;-143.16;24.06
14885;BME280;7534;50.762;7.000;2023-04-04T09:00:12;87716.94;;;-143.16;24.65
14885;BME280;7534;50.762;7.000;2023-04-04T09:06:01;87729.06;;;-143.16;24.97
14885;BME280;7534;50.762;7.000;2023-04-04T09:08:29;87618.06;;;-143.16;24.31
14885;BME280;7534;50.762;7.000;2023-04-04T09:10:56;87648.31;;;-143.16;24.13
14885;BME280;7534;50.762;7.000;2023-04-04T09:13:22;87791.63;;;-143.16;25.33
14885;BME280;7534;50.762;7.000;2023-04-04T09:15:52;87803.75;;;-143.16;25.06
14885;BME280;7534;50.762;7.000;2023-04-04T09:18:22;87727.03;;;-143.16;25.12
14885;BME280;7534;50.762;7.000;2023-04-04T09:21:11;87587.78;;;-143.16;24.32
14885;BME280;7534;50.762;7.000;2023-04-04T09:23:37;87507.03;;;-143.16;23.15
14885;BME280;7534;50.762;7.000;2023-04-04T09:26:04;87436.41;;;-143.16;23.25
14885;BME280;7534;50.762;7.000;2023-04-04T09:28:31;87446.50;;;-143.16;22.95
14885;BME280;7534;50.762;7.000;2023-04-04T09:31:01;87501.00;;;-143.16;23.52
14885;BME280;7534;50.762;7.000;2023-04-04T09:33:31;87474.75;;;-143.16;23.26
14885;BME280;7534;50.762;7.000;2023-04-04T09:36:04;87224.50;;;-143.16;22.06
14885;BME280;7534;50.762;7.000;2023-04-04T09:38:31;87220.47;;;-143.16;22.53
14885;BME280;7534;50.762;7.000;2023-04-04T09:40:57;87398.06;;;-143.16;23.07
14885;BME280;7534;50.762;7.000;2023-04-04T09:43:49;87438.41;;;-143.16;23.59
14885;BME280;7534;50.762;7.000;2023-04-04T09:46:25;87555.47;;;-143.16;23.83
14885;BME280;7534;50.762;7.000;2023-04-04T09:48:52;87498.97;;;-143.16;23.63
14885;BME280;7534;50.762;7.000;2023-04-04T09:51:20;87488.88;;;-143.16;23.60
14885;BME280;7534;50.762;7.000;2023-04-04T09:53:50;87753.28;;;-143.16;24.47
14885;BME280;7534;50.762;7.000;2023-04-04T09:56:16;87656.41;;;-143.16;24.22
14885;BME280;7534;50.762;7.000;2023-04-04T09:58:46;87404.13;;;-143.16;23.04
14885;BME280;7534;50.762;7.000;2023-04-04T10:01:12;87133.69;;;-143.16;22.15
14885;BME280;7534;50.762;7.000;2023-04-04T10:03:38;87256.78;;;-143.16;22.21
14885;BME280;7534;50.762;7.000;2023-04-04T10:06:08;87458.59;;;-143.16;23.07
14885;BME280;7534;50.762;7.000;2023-04-04T10:08:39;87309.25;;;-143.16;22.81
14885;BME280;7534;50.762;7.000;2023-04-04T10:11:05;87357.69;;;-143.16;22.82
14885;BME280;7534;50.762;7.000;2023-04-04T10:13:36;87430.34;;;-143.16;23.28
14885;BME280;7534;50.762;7.000;2023-04-04T10:16:06;87305.22;;;-143.16;22.92
14885;BME280;7534;50.762;7.000;2023-04-04T10:18:33;87396.03;;;-143.16;23.41
14885;BME280;7534;50.762;7.000;2023-04-04T10:21:05;87440.44;;;-143.16;24.17
14885;BME280;7534;50.762;7.000;2023-04-04T10:23:31;87543.38;;;-143.16;24.01
14885;BME280;7534;50.762;7.000;2023-04-04T10:25:59;87577.69;;;-143.16;24.70
14885;BME280;7534;50.762;7.000;2023-04-04T10:28:26;87725.03;;;-143.16;25.52
14885;BME280;7534;50.762;7.000;2023-04-04T10:31:08;87809.78;;;-143.16;25.85
14885;BME280;7534;50.762;7.000;2023-04-04T10:34:06;87999.53;;;-143.16;27.55
14885;BME280;7534;50.762;7.000;2023-04-04T10:36:44;87995.50;;;-143.16;27.82
14885;BME280;7534;50.762;7.000;2023-04-04T10:39:25;88043.94;;;-143.16;27.63
14885;BME280;7534;50.762;7.000;2023-04-04T10:41:52;87981.38;;;-143.16;27.87
14885;BME280;7534;50.762;7.000;2023-04-04T10:44:31;88023.75;;;-143.16;27.64
14885;BME280;7534;50.762;7.000;2023-04-04T10:49:37;88060.09;;;-143.16;28.60
14885;BME280;7534;50.762;7.000;2023-04-04T10:52:04;88080.28;;;-143.16;28.87
14885;BME280;7534;50.762;7.000;2023-04-04T10:54:30;88058.06;;;-143.16;28.45
14885;BME280;7534;50.762;7.000;2023-04-04T10:56:57;88096.44;;;-143.16;29.13
14885;BME280;7534;50.762;7.000;2023-04-04T10:59:26;88177.16;;;-143.16;29.21
14885;BME280;7534;50.762;7.000;2023-04-04T11:01:58;88056.06;;;-143.16;29.03
14885;BME280;7534;50.762;7.000;2023-04-04T11:07:08;88197.34;;;-143.16;29.19
14885;BME280;7534;50.762;7.000;2023-04-04T11:09:48;88146.88;;;-143.16;29.85
14885;BME280;7534;50.762;7.000;2023-04-04T11:12:15;88157.00;;;-143.16;29.28
14885;BME280;7534;50.762;7.000;2023-04-04T11:17:49;88179.19;;;-143.16;28.97
14885;BME280;7534;50.762;7.000;2023-04-04T11:20:27;88108.53;;;-143.16;28.90
14885;BME280;7534;50.762;7.000;2023-04-04T11:23:16;88179.19;;;-143.16;28.70
14885;BME280;7534;50.762;7.000;2023-04-04T11:25:54;88159.00;;;-143.16;29.38
14885;BME280;7534;50.762;7.000;2023-04-04T11:34:13;88161.03;;;-143.16;28.63
14885;BME280;7534;50.762;7.000;2023-04-04T11:41:54;88211.50;;;-143.16;28.19
14885;BME280;7534;50.762;7.000;2023-04-04T11:44:24;88152.94;;;-143.16;29.14
14885;BME280;7534;50.762;7.000;2023-04-04T11:47:10;88124.69;;;-143.16;28.88
14885;BME280;7534;50.762;7.000;2023-04-04T11:49:40;88175.16;;;-143.16;28.89
14885;BME280;7534;50.762;7.000;2023-04-04T11:52:10;88144.88;;;-143.16;28.50
14885;BME280;7534;50.762;7.000;2023-04-04T11:54:37;88124.69;;;-143.16;28.88
14885;BME280;7534;50.762;7.000;2023-04-04T11:57:10;88152.94;;;-143.16;29.84
14885;BME280;7534;50.762;7.000;2023-04-04T11:59:41;88106.53;;;-143.16;28.92
14885;BME280;7534;50.762;7.000;2023-04-04T12:02:09;88023.75;;;-143.16;28.11
14885;BME280;7534;50.762;7.000;2023-04-04T12:04:40;88084.31;;;-143.16;28.28
14885;BME280;7534;50.762;7.000;2023-04-04T12:07:08;88072.19;;;-143.16;28.21
14885;BME280;7534;50.762;7.000;2023-04-04T12:09:35;88110.56;;;-143.16;28.33
14885;BME280;7534;50.762;7.000;2023-04-04T12:12:01;88082.28;;;-143.16;27.61
14885;BME280;7534;50.762;7.000;2023-04-04T12:14:28;88007.59;;;-143.16;27.13
14885;BME280;7534;50.762;7.000;2023-04-04T12:16:56;88013.66;;;-143.16;27.72
14885;BME280;7534;50.762;7.000;2023-04-04T12:19:26;88019.72;;;-143.16;27.63
14885;BME280;7534;50.762;7.000;2023-04-04T12:21:53;88037.88;;;-143.16;28.24
14885;BME280;7534;50.762;7.000;2023-04-04T12:24:21;88011.66;;;-143.16;27.86
14885;BME280;7534;50.762;7.000;2023-04-04T12:26:51;88035.88;;;-143.16;27.87
14885;BME280;7534;50.762;7.000;2023-04-04T12:29:21;88039.91;;;-143.16;27.52
14885;BME280;7534;50.762;7.000;2023-04-04T12:31:49;88003.56;;;-143.16;27.58
14885;BME280;7534;50.762;7.000;2023-04-04T12:34:29;88001.56;;;-143.16;27.06
14885;BME280;7534;50.762;7.000;2023-04-04T12:36:57;88068.16;;;-143.16;27.58
14885;BME280;7534;50.762;7.000;2023-04-04T12:39:28;88054.03;;;-143.16;28.04
14885;BME280;7534;50.762;7.000;2023-04-04T12:41:58;88054.03;;;-143.16;28.00
14885;BME280;7534;50.762;7.000;2023-04-04T12:44:37;88019.72;;;-143.16;27.43
14885;BME280;7534;50.762;7.000;2023-04-04T12:47:06;87979.34;;;-143.16;27.33
14885;BME280;7534;50.762;7.000;2023-04-04T12:49:45;87934.94;;;-143.16;27.12
14885;BME280;7534;50.762;7.000;2023-04-04T12:52:19;87936.97;;;-143.16;26.64
14885;BME280;7534;50.762;7.000;2023-04-04T12:54:46;88017.69;;;-143.16;27.03
14885;BME280;7534;50.762;7.000;2023-04-04T12:57:18;88037.88;;;-143.16;26.82
14885;BME280;7534;50.762;7.000;2023-04-04T12:59:45;87975.31;;;-143.16;27.50
14885;BME280;7534;50.762;7.000;2023-04-04T13:02:16;87934.94;;;-143.16;27.30
14885;BME280;7534;50.762;7.000;2023-04-04T13:04:46;87961.19;;;-143.16;26.74
14885;BME280;7534;50.762;7.000;2023-04-04T13:07:30;88021.75;;;-143.16;26.74
14885;BME280;7534;50.762;7.000;2023-04-04T13:10:02;87983.38;;;-143.16;26.45
14885;BME280;7534;50.762;7.000;2023-04-04T13:12:55;87916.78;;;-143.16;26.41
14885;BME280;7534;50.762;7.000;2023-04-04T13:15:42;87870.34;;;-143.16;26.34
14885;BME280;7534;50.762;7.000;2023-04-04T13:18:15;87862.28;;;-143.16;26.69